createdAt,value
2018-08-24T00:02:50.181Z,21.30
2018-08-24T00:07:53.716Z,21.50
2018-08-24T00:12:57.258Z,21.30
2018-08-24T00:18:00.801Z,21.20
2018-08-24T00:23:04.374Z,21.30
2018-08-24T00:28:07.922Z,21.10
2018-08-24T00:33:11.631Z,21.10
2018-08-24T00:38:15.247Z,21.00
2018-08-24T00:43:18.875Z,20.80
2018-08-24T00:48:22.454Z,20.80
2018-08-24T00:53:31.856Z,20.70
2018-08-24T00:58:35.994Z,20.60
2018-08-24T01:03:40.574Z,20.60
2018-08-24T01:08:45.151Z,20.40
2018-08-24T01:13:51.481Z,20.30
2018-08-24T01:18:55.027Z,20.20
2018-08-24T01:23:58.622Z,20.10
2018-08-24T01:29:02.212Z,20.10
2018-08-24T01:34:06.025Z,20.00
2018-08-24T01:39:09.570Z,20.00
2018-08-24T01:44:13.205Z,19.80
2018-08-24T01:49:16.842Z,19.70
2018-08-24T01:54:20.395Z,19.60
2018-08-24T01:59:23.926Z,19.60
2018-08-24T02:04:27.528Z,19.60
2018-08-24T02:09:39.202Z,19.40
2018-08-24T02:14:42.739Z,19.50
2018-08-24T02:19:51.619Z,19.60
2018-08-24T02:24:55.208Z,19.80
2018-08-24T02:29:58.749Z,19.90
2018-08-24T02:35:02.330Z,19.80
2018-08-24T02:40:06.043Z,19.60
2018-08-24T02:45:09.777Z,19.50
2018-08-24T02:50:13.272Z,19.60
2018-08-24T02:55:16.953Z,19.70
2018-08-24T03:00:20.614Z,19.70
2018-08-24T03:05:24.339Z,19.60
2018-08-24T03:10:27.786Z,19.60
2018-08-24T03:15:31.333Z,20.30
2018-08-24T03:20:34.985Z,20.70
2018-08-24T03:25:38.525Z,21.00
2018-08-24T03:30:42.070Z,21.90
2018-08-24T03:35:45.670Z,20.70
2018-08-24T03:40:49.226Z,21.00
2018-08-24T03:45:52.795Z,21.10
2018-08-24T03:50:56.319Z,21.10
2018-08-24T03:56:00.070Z,21.20
2018-08-24T04:01:04.951Z,21.20
2018-08-24T04:06:08.490Z,20.90
2018-08-24T04:11:12.070Z,21.00
2018-08-24T04:16:15.582Z,20.60
2018-08-24T04:21:21.154Z,20.50
2018-08-24T04:26:24.690Z,20.60
2018-08-24T04:31:29.342Z,20.60
2018-08-24T04:36:37.848Z,20.60
2018-08-24T04:41:42.258Z,20.50
2018-08-24T04:46:45.771Z,20.60
2018-08-24T04:51:49.382Z,20.40
2018-08-24T04:56:57.191Z,20.20
2018-08-24T05:02:00.931Z,20.10
2018-08-24T05:07:04.493Z,20.20
2018-08-24T05:12:08.169Z,19.80
2018-08-24T05:17:11.709Z,20.10
2018-08-24T05:22:15.225Z,19.80
2018-08-24T05:27:19.966Z,19.90
2018-08-24T05:32:23.589Z,20.10
2018-08-24T05:37:27.471Z,20.00
2018-08-24T05:42:31.014Z,19.90
2018-08-24T05:47:34.581Z,19.90
2018-08-24T05:52:38.136Z,19.80
2018-08-24T05:57:41.663Z,20.10
2018-08-24T06:02:45.898Z,19.90
2018-08-24T06:07:49.491Z,19.80
2018-08-24T06:12:53.030Z,19.60
2018-08-24T06:17:57.393Z,19.80
2018-08-24T06:23:00.918Z,19.60
2018-08-24T06:28:04.546Z,19.50
2018-08-24T06:33:08.093Z,19.50
2018-08-24T06:38:12.726Z,19.40
2018-08-24T06:43:16.287Z,19.50
2018-08-24T06:48:19.896Z,19.00
2018-08-24T06:53:23.683Z,18.90
2018-08-24T06:58:27.090Z,18.60
2018-08-24T07:03:30.710Z,18.60
2018-08-24T07:08:34.409Z,18.60
2018-08-24T07:13:38.310Z,18.80
2018-08-24T07:18:41.929Z,18.80
2018-08-24T07:23:45.618Z,18.50
2018-08-24T07:28:49.293Z,18.40
2018-08-24T07:33:57.940Z,18.50
2018-08-24T07:39:01.612Z,18.20
2018-08-24T07:44:09.099Z,18.20
2018-08-24T07:49:12.754Z,18.30
2018-08-24T07:54:16.414Z,18.10
2018-08-24T07:59:20.026Z,18.40
2018-08-24T08:04:23.553Z,18.20
2018-08-24T08:09:27.214Z,18.10
2018-08-24T08:14:31.747Z,17.90
2018-08-24T08:19:35.393Z,17.90
2018-08-24T08:24:38.947Z,18.00
2018-08-24T08:29:47.804Z,19.00
2018-08-24T08:34:51.393Z,18.90
2018-08-24T08:40:03.059Z,19.50
2018-08-24T08:45:06.793Z,19.60
2018-08-24T08:50:10.374Z,20.00
2018-08-24T08:55:14.003Z,19.40
2018-08-24T09:00:18.754Z,19.60
2018-08-24T09:05:22.327Z,19.60
2018-08-24T09:10:25.864Z,19.40
2018-08-24T09:15:29.490Z,19.10
2018-08-24T09:20:38.310Z,19.60
2018-08-24T09:25:47.276Z,19.10
2018-08-24T09:31:03.071Z,19.10
2018-08-24T09:36:12.698Z,19.70
2018-08-24T09:41:16.400Z,22.40
2018-08-24T09:46:22.068Z,23.30
2018-08-24T09:51:26.816Z,23.00
2018-08-24T09:56:31.410Z,21.50
2018-08-24T10:01:40.378Z,21.20
2018-08-24T10:06:50.420Z,20.70
2018-08-24T10:11:54.059Z,22.10
2018-08-24T10:16:59.749Z,26.30
2018-08-24T10:22:03.454Z,24.10
2018-08-24T10:27:07.064Z,25.40
2018-08-24T10:32:10.681Z,28.20
2018-08-24T10:37:20.861Z,26.80
2018-08-24T10:42:24.578Z,25.40
2018-08-24T10:47:28.250Z,24.00
2018-08-24T10:52:34.973Z,22.90
2018-08-24T10:57:38.607Z,23.00
2018-08-24T11:02:45.901Z,23.10
2018-08-24T11:07:52.747Z,24.40
2018-08-24T11:12:56.461Z,24.30
2018-08-24T11:18:10.352Z,23.60
2018-08-24T11:23:15.040Z,23.00
2018-08-24T11:28:18.612Z,22.40
2018-08-24T11:33:22.296Z,22.50
2018-08-24T11:38:25.844Z,22.50
2018-08-24T11:43:29.507Z,22.30
2018-08-24T11:48:33.079Z,23.00
2018-08-24T11:53:42.530Z,23.50
2018-08-24T11:58:46.078Z,23.20
2018-08-24T12:03:49.737Z,22.90
2018-08-24T12:08:53.280Z,23.00
2018-08-24T12:13:56.915Z,23.10
2018-08-24T12:19:00.578Z,23.30
2018-08-24T12:24:09.436Z,23.40
2018-08-24T12:29:13.110Z,23.00
2018-08-24T12:34:22.431Z,22.60
2018-08-24T12:39:25.961Z,23.10
2018-08-24T12:44:32.985Z,23.20
2018-08-24T12:49:36.629Z,23.50
2018-08-24T12:54:40.330Z,23.20
2018-08-24T12:59:43.859Z,22.90
2018-08-24T13:04:57.978Z,22.90
2018-08-24T13:10:02.928Z,22.50
2018-08-24T13:15:06.590Z,23.00
2018-08-24T13:20:10.282Z,22.80
2018-08-24T13:25:13.979Z,22.70
2018-08-24T13:30:17.543Z,22.60
2018-08-24T13:35:21.233Z,22.70
2018-08-24T13:40:30.462Z,22.60
2018-08-24T13:45:34.231Z,22.60
2018-08-24T13:50:38.694Z,22.50
2018-08-24T13:55:42.386Z,22.70
2018-08-24T14:00:49.306Z,22.60
2018-08-24T14:05:53.063Z,22.70
2018-08-24T14:10:58.409Z,22.70
2018-08-24T14:16:01.998Z,22.80
2018-08-24T14:21:07.767Z,22.40
2018-08-24T14:26:11.630Z,22.20
2018-08-24T14:31:17.352Z,22.20
2018-08-24T14:36:21.029Z,22.10
2018-08-24T14:41:25.258Z,22.20
2018-08-24T14:46:29.002Z,22.10
2018-08-24T14:51:34.875Z,22.20
2018-08-24T14:56:40.535Z,22.10
2018-08-24T15:01:44.195Z,21.90
2018-08-24T15:06:48.827Z,22.00
2018-08-24T15:11:59.649Z,22.00
2018-08-24T15:17:03.623Z,22.00
2018-08-24T15:22:09.286Z,22.00
2018-08-24T15:27:13.106Z,22.00
2018-08-24T15:32:20.628Z,22.00
2018-08-24T15:37:26.477Z,22.00
2018-08-24T15:42:30.048Z,22.00
2018-08-24T15:47:39.902Z,22.10
2018-08-24T15:52:49.143Z,21.90
2018-08-24T15:57:56.478Z,21.90
2018-08-24T16:03:00.100Z,21.70
2018-08-24T16:08:07.322Z,21.70
2018-08-24T16:13:10.979Z,21.80
2018-08-24T16:18:19.716Z,21.70
2018-08-24T16:23:26.976Z,21.70
2018-08-24T16:28:30.507Z,21.60
2018-08-24T16:33:34.123Z,21.60
2018-08-24T16:38:39.273Z,21.30
2018-08-24T16:43:42.851Z,21.50
2018-08-24T16:48:47.691Z,21.50
2018-08-24T16:53:51.394Z,21.40
2018-08-24T16:58:57.993Z,21.30
2018-08-24T17:04:02.001Z,21.20
2018-08-24T17:09:10.682Z,21.30
2018-08-24T17:14:14.472Z,21.20
2018-08-24T17:19:18.101Z,21.00
2018-08-24T17:24:21.758Z,21.00
2018-08-24T17:29:26.547Z,21.00
2018-08-24T17:34:31.218Z,20.90
2018-08-24T17:39:35.161Z,20.90
2018-08-24T17:44:38.771Z,20.80
2018-08-24T17:49:42.606Z,20.80
2018-08-24T17:54:46.263Z,20.40
2018-08-24T17:59:49.938Z,20.10
2018-08-24T18:04:53.889Z,20.00
2018-08-24T18:09:58.723Z,20.10
2018-08-24T18:15:02.526Z,19.60
2018-08-24T18:20:06.027Z,19.70
2018-08-24T18:25:10.007Z,19.50
2018-08-24T18:30:14.733Z,19.40
2018-08-24T18:35:18.216Z,19.70
2018-08-24T18:40:21.826Z,19.70
2018-08-24T18:45:28.873Z,19.40
2018-08-24T18:50:32.555Z,19.20
2018-08-24T18:55:36.137Z,19.30
2018-08-24T19:00:39.728Z,19.00
2018-08-24T19:05:43.448Z,18.70
2018-08-24T19:10:52.163Z,18.90
2018-08-24T19:15:59.633Z,19.10
2018-08-24T19:21:08.598Z,19.00
2018-08-24T19:26:13.370Z,19.10
2018-08-24T19:31:18.031Z,18.80
2018-08-24T19:36:21.779Z,18.50
2018-08-24T19:41:32.710Z,18.40
2018-08-24T19:46:38.403Z,18.40
2018-08-24T19:51:44.231Z,18.30
2018-08-24T19:56:47.992Z,18.10
2018-08-24T20:01:56.690Z,17.90
2018-08-24T20:07:05.599Z,17.80
2018-08-24T20:12:12.578Z,17.80
2018-08-24T20:17:21.497Z,17.70
2018-08-24T20:22:25.254Z,17.60
2018-08-24T20:27:28.870Z,17.50
2018-08-24T20:32:32.534Z,17.40
2018-08-24T20:37:36.313Z,17.30
2018-08-24T20:42:39.919Z,17.30
2018-08-24T20:47:43.478Z,17.10
2018-08-24T20:52:47.225Z,17.10
2018-08-24T20:57:50.747Z,16.90
2018-08-24T21:02:54.330Z,16.90
2018-08-24T21:07:57.900Z,16.70
2018-08-24T21:13:01.455Z,16.60
2018-08-24T21:18:05.143Z,16.50
2018-08-24T21:23:08.824Z,16.50
2018-08-24T21:28:12.352Z,16.50
2018-08-24T21:33:17.021Z,16.50
2018-08-24T21:38:20.595Z,16.70
2018-08-24T21:43:24.163Z,16.50
2018-08-24T21:48:27.806Z,16.50
2018-08-24T21:53:31.386Z,16.30
2018-08-24T21:58:34.955Z,16.30
2018-08-24T22:03:38.496Z,16.20
2018-08-24T22:08:42.052Z,16.10
2018-08-24T22:13:45.699Z,16.20
2018-08-24T22:18:49.451Z,16.20
2018-08-24T22:23:53.040Z,16.30
2018-08-24T22:28:56.605Z,16.10
2018-08-24T22:34:00.198Z,16.10
2018-08-24T22:39:05.118Z,16.00
2018-08-24T22:44:11.778Z,16.00
2018-08-24T22:49:15.326Z,16.10
2018-08-24T22:54:19.102Z,16.10
2018-08-24T22:59:27.950Z,16.10
2018-08-24T23:04:31.458Z,15.90
2018-08-24T23:09:36.177Z,16.00
2018-08-24T23:14:39.786Z,16.20
2018-08-24T23:19:43.387Z,16.40
2018-08-24T23:24:46.879Z,16.40
2018-08-24T23:29:50.490Z,16.10
2018-08-24T23:34:54.039Z,16.00
2018-08-24T23:39:57.555Z,15.90
2018-08-24T23:45:04.747Z,15.90
2018-08-24T23:50:08.478Z,16.20
2018-08-24T23:55:12.417Z,16.20
